Time,TemperatureF,DewpointF,PressureIn,WindDirection,WindDirectionDegrees,WindSpeedMPH,WindSpeedGustMPH,Humidity,HourlyPrecipIn,Conditions,Clouds,dailyrainin,SoftwareType,DateUTC
2013-02-26 00:03:00,30.0,27.0,30.10,SW,225,3.0,4.0,92,0.00,,,0.00,TxWx,2013-02-26 05:03:00,
2013-02-26 00:08:00,29.0,26.0,30.11,SSW,202,3.0,5.0,92,0.00,,,0.00,TxWx,2013-02-26 05:08:00,
2013-02-26 00:14:00,29.0,26.0,30.11,SSW,202,4.0,5.0,92,0.00,,,0.00,TxWx,2013-02-26 05:14:00,
2013-02-26 00:19:00,29.0,26.0,30.11,SSW,202,3.0,3.0,92,0.00,,,0.00,TxWx,2013-02-26 05:19:00,
2013-02-26 00:24:00,29.0,26.0,30.11,SW,225,2.0,3.0,92,0.00,,,0.00,TxWx,2013-02-26 05:24:00,
2013-02-26 00:31:00,29.0,26.0,30.11,SW,225,2.0,3.0,91,0.00,,,0.00,TxWx,2013-02-26 05:31:00,
2013-02-26 00:36:00,29.0,26.0,30.11,SW,225,3.0,3.0,91,0.00,,,0.00,TxWx,2013-02-26 05:36:00,
2013-02-26 00:41:00,29.0,26.0,30.11,SW,225,2.0,2.0,91,0.00,,,0.00,TxWx,2013-02-26 05:41:00,
2013-02-26 00:47:00,29.0,26.0,30.11,SW,225,2.0,3.0,91,0.00,,,0.00,TxWx,2013-02-26 05:47:00,
2013-02-26 00:52:00,29.0,26.0,30.11,SW,225,3.0,4.0,91,0.00,,,0.00,TxWx,2013-02-26 05:52:00,
2013-02-26 00:57:00,29.0,26.0,30.11,SW,225,3.0,3.0,91,0.00,,,0.00,TxWx,2013-02-26 05:57:00,
2013-02-26 01:02:00,29.0,26.0,30.10,SW,225,1.0,1.0,91,0.00,,,0.00,TxWx,2013-02-26 06:02:00,
2013-02-26 01:07:00,29.0,26.0,30.10,SSE,157,1.0,1.0,91,0.00,,,0.00,TxWx,2013-02-26 06:07:00,
2013-02-26 01:12:00,29.0,26.0,30.10,SSW,202,1.0,1.0,91,0.00,,,0.00,TxWx,2013-02-26 06:12:00,
2013-02-26 01:17:00,29.0,26.0,30.09,ENE,67,0.0,0.0,91,0.00,,,0.00,TxWx,2013-02-26 06:17:00,
2013-02-26 01:23:00,29.0,26.0,30.10,SSW,202,1.0,1.0,91,0.00,,,0.00,TxWx,2013-02-26 06:23:00,
2013-02-26 01:28:00,29.0,26.0,30.10,SSW,202,1.0,2.0,91,0.00,,,0.00,TxWx,2013-02-26 06:28:00,
2013-02-26 01:33:00,29.0,26.0,30.10,South,180,2.0,3.0,91,0.00,,,0.00,TxWx,2013-02-26 06:33:00,
2013-02-26 01:38:00,29.0,26.0,30.10,SSW,202,2.0,2.0,91,0.00,,,0.00,TxWx,2013-02-26 06:38:00,
2013-02-26 01:43:00,29.0,26.0,30.10,South,180,2.0,3.0,91,0.00,,,0.00,TxWx,2013-02-26 06:43:00,
2013-02-26 01:48:00,29.0,26.0,30.10,SSW,202,2.0,3.0,91,0.00,,,0.00,TxWx,2013-02-26 06:48:00,
2013-02-26 01:53:00,29.0,26.0,30.11,SSW,202,3.0,3.0,92,0.00,,,0.00,TxWx,2013-02-26 06:53:00,
2013-02-26 01:58:00,28.0,25.0,30.12,SSW,202,3.0,3.0,92,0.00,,,0.00,TxWx,2013-02-26 06:58:00,
2013-02-26 02:03:00,28.0,25.0,30.13,SSW,202,3.0,3.0,92,0.00,,,0.00,TxWx,2013-02-26 07:03:00,
2013-02-26 02:08:00,28.0,25.0,30.13,SSW,202,3.0,4.0,92,0.00,,,0.00,TxWx,2013-02-26 07:08:00,
2013-02-26 02:13:00,28.0,25.0,30.13,SSW,202,3.0,3.0,93,0.00,,,0.00,TxWx,2013-02-26 07:13:00,
2013-02-26 02:18:00,28.0,25.0,30.13,SSW,202,1.0,1.0,93,0.00,,,0.00,TxWx,2013-02-26 07:18:00,
2013-02-26 02:23:00,28.0,25.0,30.13,SW,225,2.0,3.0,93,0.00,,,0.00,TxWx,2013-02-26 07:23:00,
2013-02-26 02:28:00,27.0,24.0,30.13,SSW,202,1.0,2.0,93,0.00,,,0.00,TxWx,2013-02-26 07:28:00,
2013-02-26 02:34:00,27.0,24.0,30.14,SSW,202,2.0,2.0,94,0.00,,,0.00,TxWx,2013-02-26 07:34:00,
2013-02-26 02:39:00,27.0,24.0,30.14,SSW,202,3.0,3.0,94,0.00,,,0.00,TxWx,2013-02-26 07:39:00,
2013-02-26 02:44:00,27.0,24.0,30.13,SSW,202,2.0,2.0,94,0.00,,,0.00,TxWx,2013-02-26 07:44:00,
2013-02-26 02:49:00,27.0,24.0,30.13,SW,225,2.0,3.0,94,0.00,,,0.00,TxWx,2013-02-26 07:49:00,
2013-02-26 02:54:00,27.0,25.0,30.12,SW,225,1.0,1.0,94,0.00,,,0.00,TxWx,2013-02-26 07:54:00,
2013-02-26 02:59:00,27.0,25.0,30.12,South,180,1.0,1.0,95,0.00,,,0.00,TxWx,2013-02-26 07:59:00,
2013-02-26 03:04:00,27.0,25.0,30.12,SW,225,2.0,2.0,95,0.00,,,0.00,TxWx,2013-02-26 08:04:00,
2013-02-26 03:09:00,27.0,25.0,30.13,SW,225,3.0,3.0,95,0.00,,,0.00,TxWx,2013-02-26 08:09:00,
2013-02-26 03:14:00,27.0,25.0,30.13,SSW,202,1.0,2.0,95,0.00,,,0.00,TxWx,2013-02-26 08:14:00,
2013-02-26 03:19:00,27.0,25.0,30.13,SSW,202,1.0,1.0,95,0.00,,,0.00,TxWx,2013-02-26 08:19:00,
2013-02-26 03:24:00,27.0,25.0,30.13,SSW,202,1.0,2.0,96,0.00,,,0.00,TxWx,2013-02-26 08:24:00,
2013-02-26 03:29:00,27.0,25.0,30.14,SSE,157,1.0,1.0,96,0.00,,,0.00,TxWx,2013-02-26 08:29:00,
2013-02-26 03:34:00,26.0,24.0,30.12,SW,225,0.0,0.0,96,0.00,,,0.00,TxWx,2013-02-26 08:34:00,
2013-02-26 03:39:00,27.0,25.0,30.13,SSW,202,0.0,0.0,96,0.00,,,0.00,TxWx,2013-02-26 08:39:00,
2013-02-26 03:44:00,27.0,25.0,30.12,South,180,0.0,0.0,96,0.00,,,0.00,TxWx,2013-02-26 08:44:00,
2013-02-26 03:50:00,26.0,24.0,30.12,WSW,247,1.0,1.0,96,0.00,,,0.00,TxWx,2013-02-26 08:50:00,
2013-02-26 03:55:00,27.0,25.0,30.12,SW,225,1.0,1.0,97,0.00,,,0.00,TxWx,2013-02-26 08:55:00,
2013-02-26 04:00:00,27.0,25.0,30.12,NW,315,3.0,3.0,97,0.00,,,0.00,TxWx,2013-02-26 09:00:00,
2013-02-26 04:05:00,27.0,25.0,30.12,NW,315,3.0,3.0,97,0.00,,,0.00,TxWx,2013-02-26 09:05:00,
2013-02-26 04:10:00,27.0,25.0,30.13,West,270,2.0,2.0,97,0.00,,,0.00,TxWx,2013-02-26 09:10:00,
2013-02-26 04:15:00,27.0,26.0,30.14,WNW,292,2.0,3.0,97,0.00,,,0.00,TxWx,2013-02-26 09:15:00,
2013-02-26 04:20:00,27.0,25.0,30.13,West,270,1.0,1.0,97,0.00,,,0.00,TxWx,2013-02-26 09:20:00,
2013-02-26 04:25:00,27.0,25.0,30.13,NW,315,2.0,2.0,97,0.00,,,0.00,TxWx,2013-02-26 09:25:00,
2013-02-26 04:30:00,27.0,25.0,30.13,NW,315,3.0,3.0,97,0.00,,,0.00,TxWx,2013-02-26 09:30:00,
2013-02-26 04:35:00,27.0,25.0,30.13,NNW,337,3.0,3.0,97,0.00,,,0.00,TxWx,2013-02-26 09:35:00,
2013-02-26 04:40:00,27.0,25.0,30.13,NNW,337,3.0,3.0,98,0.00,,,0.00,TxWx,2013-02-26 09:40:00,
2013-02-26 04:45:00,27.0,25.0,30.13,NNE,22,3.0,3.0,98,0.00,,,0.00,TxWx,2013-02-26 09:45:00,
2013-02-26 04:50:00,27.0,25.0,30.13,NNE,22,3.0,3.0,98,0.00,,,0.00,TxWx,2013-02-26 09:50:00,
2013-02-26 04:55:00,27.0,26.0,30.13,NNE,22,3.0,3.0,98,0.00,,,0.00,TxWx,2013-02-26 09:55:00,
2013-02-26 05:01:00,27.0,26.0,30.13,North,0,2.0,2.0,98,0.00,,,0.00,TxWx,2013-02-26 10:01:00,
2013-02-26 05:06:00,27.0,26.0,30.13,NNE,22,2.0,3.0,98,0.00,,,0.00,TxWx,2013-02-26 10:06:00,
2013-02-26 05:11:00,28.0,27.0,30.14,NE,45,2.0,3.0,98,0.00,,,0.00,TxWx,2013-02-26 10:11:00,
2013-02-26 05:16:00,28.0,27.0,30.14,SE,135,1.0,1.0,98,0.00,,,0.00,TxWx,2013-02-26 10:16:00,
2013-02-26 05:21:00,28.0,27.0,30.14,East,90,3.0,3.0,98,0.00,,,0.00,TxWx,2013-02-26 10:21:00,
2013-02-26 05:26:00,28.0,26.0,30.13,East,90,4.0,4.0,98,0.00,,,0.00,TxWx,2013-02-26 10:26:00,
2013-02-26 05:31:00,27.0,26.0,30.14,East,90,4.0,5.0,98,0.00,,,0.00,TxWx,2013-02-26 10:31:00,
2013-02-26 05:36:00,27.0,25.0,30.14,ESE,112,5.0,5.0,98,0.00,,,0.00,TxWx,2013-02-26 10:36:00,
2013-02-26 05:41:00,28.0,26.0,30.14,East,90,3.0,3.0,98,0.00,,,0.00,TxWx,2013-02-26 10:41:00,
2013-02-26 05:46:00,28.0,26.0,30.14,ESE,112,4.0,5.0,98,0.00,,,0.00,TxWx,2013-02-26 10:46:00,
2013-02-26 05:51:00,28.0,26.0,30.14,East,90,3.0,4.0,98,0.00,,,0.00,TxWx,2013-02-26 10:51:00,
2013-02-26 05:56:00,28.0,26.0,30.14,SSE,157,0.0,1.0,97,0.00,,,0.00,TxWx,2013-02-26 10:56:00,
2013-02-26 06:01:00,28.0,26.0,30.14,South,180,0.0,1.0,97,0.00,,,0.00,TxWx,2013-02-26 11:01:00,
2013-02-26 06:06:00,28.0,26.0,30.14,SSE,157,0.0,0.0,97,0.00,,,0.00,TxWx,2013-02-26 11:06:00,
2013-02-26 06:12:00,28.0,26.0,30.14,SSW,202,1.0,1.0,97,0.00,,,0.00,TxWx,2013-02-26 11:12:00,
2013-02-26 06:17:00,27.0,25.0,30.14,SSW,202,2.0,2.0,97,0.00,,,0.00,TxWx,2013-02-26 11:17:00,
2013-02-26 06:22:00,28.0,26.0,30.14,South,180,1.0,1.0,97,0.00,,,0.00,TxWx,2013-02-26 11:22:00,
2013-02-26 06:27:00,27.0,25.0,30.14,SSW,202,3.0,3.0,97,0.00,,,0.00,TxWx,2013-02-26 11:27:00,
2013-02-26 06:32:00,27.0,25.0,30.15,SSW,202,2.0,2.0,97,0.00,,,0.00,TxWx,2013-02-26 11:32:00,
2013-02-26 06:37:00,27.0,25.0,30.14,South,180,1.0,1.0,97,0.00,,,0.00,TxWx,2013-02-26 11:37:00,
2013-02-26 06:42:00,27.0,25.0,30.14,South,180,1.0,1.0,98,0.00,,,0.00,TxWx,2013-02-26 11:42:00,
2013-02-26 06:47:00,27.0,25.0,30.14,SSE,157,0.0,0.0,98,0.00,,,0.00,TxWx,2013-02-26 11:47:00,
2013-02-26 06:52:00,27.0,25.0,30.14,SE,135,1.0,1.0,98,0.00,,,0.00,TxWx,2013-02-26 11:52:00,
2013-02-26 06:57:00,27.0,26.0,30.14,South,180,0.0,0.0,98,0.00,,,0.00,TxWx,2013-02-26 11:57:00,
2013-02-26 07:02:00,27.0,26.0,30.14,ENE,67,1.0,1.0,98,0.00,,,0.00,TxWx,2013-02-26 12:02:00,
2013-02-26 07:07:00,27.0,26.0,30.15,NNE,22,2.0,2.0,98,0.00,,,0.00,TxWx,2013-02-26 12:07:00,
2013-02-26 07:12:00,28.0,27.0,30.15,East,90,2.0,3.0,99,0.00,,,0.00,TxWx,2013-02-26 12:12:00,
2013-02-26 07:18:00,28.0,27.0,30.15,ENE,67,3.0,4.0,99,0.00,,,0.00,TxWx,2013-02-26 12:18:00,
2013-02-26 07:23:00,28.0,26.0,30.15,East,90,3.0,3.0,98,0.00,,,0.00,TxWx,2013-02-26 12:23:00,
2013-02-26 07:28:00,29.0,27.0,30.15,NE,45,3.0,3.0,97,0.00,,,0.00,TxWx,2013-02-26 12:28:00,
2013-02-26 07:33:00,28.0,26.0,30.15,NW,315,1.0,2.0,96,0.00,,,0.00,TxWx,2013-02-26 12:33:00,
2013-02-26 07:38:00,29.0,27.0,30.15,WSW,247,1.0,1.0,96,0.00,,,0.00,TxWx,2013-02-26 12:38:00,
2013-02-26 07:43:00,29.0,27.0,30.15,SSW,202,1.0,1.0,96,0.00,,,0.00,TxWx,2013-02-26 12:43:00,
2013-02-26 07:48:00,29.0,27.0,30.15,NW,315,2.0,2.0,96,0.00,,,0.00,TxWx,2013-02-26 12:48:00,
2013-02-26 07:53:00,29.0,27.0,30.15,North,0,3.0,3.0,95,0.00,,,0.00,TxWx,2013-02-26 12:53:00,
2013-02-26 07:58:00,29.0,27.0,30.15,NNE,22,4.0,5.0,95,0.00,,,0.00,TxWx,2013-02-26 12:58:00,
2013-02-26 08:03:00,29.0,27.0,30.15,NNW,337,1.0,2.0,95,0.00,,,0.00,TxWx,2013-02-26 13:03:00,
2013-02-26 08:08:00,29.0,27.0,30.15,ESE,112,1.0,1.0,95,0.00,,,0.00,TxWx,2013-02-26 13:08:00,
2013-02-26 08:13:00,30.0,28.0,30.15,East,90,1.0,1.0,94,0.00,,,0.00,TxWx,2013-02-26 13:13:00,
2013-02-26 08:18:00,31.0,29.0,30.15,ESE,112,1.0,1.0,95,0.00,,,0.00,TxWx,2013-02-26 13:18:00,
2013-02-26 08:23:00,32.0,29.0,30.15,ESE,112,1.0,2.0,93,0.00,,,0.00,TxWx,2013-02-26 13:23:00,
2013-02-26 08:29:00,32.0,29.0,30.16,SSE,157,1.0,1.0,92,0.00,,,0.00,TxWx,2013-02-26 13:29:00,
2013-02-26 08:34:00,32.0,29.0,30.16,SW,225,1.0,2.0,91,0.00,,,0.00,TxWx,2013-02-26 13:34:00,
2013-02-26 08:39:00,32.0,28.0,30.16,NNW,337,2.0,2.0,90,0.00,,,0.00,TxWx,2013-02-26 13:39:00,
2013-02-26 08:44:00,31.0,27.0,30.16,North,0,1.0,3.0,89,0.00,,,0.00,TxWx,2013-02-26 13:44:00,
2013-02-26 08:49:00,31.0,27.0,30.16,NNW,337,3.0,3.0,90,0.00,,,0.00,TxWx,2013-02-26 13:49:00,
2013-02-26 08:54:00,31.0,27.0,30.16,NNW,337,3.0,4.0,90,0.00,,,0.00,TxWx,2013-02-26 13:54:00,
2013-02-26 08:59:00,31.0,27.0,30.16,North,0,5.0,5.0,89,0.00,,,0.00,TxWx,2013-02-26 13:59:00,
2013-02-26 09:04:00,31.0,27.0,30.16,NW,315,6.0,6.0,89,0.00,,,0.00,TxWx,2013-02-26 14:04:00,
2013-02-26 09:09:00,31.0,27.0,30.15,NW,315,3.0,4.0,89,0.00,,,0.00,TxWx,2013-02-26 14:09:00,
2013-02-26 09:14:00,31.0,27.0,30.15,WNW,292,3.0,3.0,89,0.00,,,0.00,TxWx,2013-02-26 14:14:00,
2013-02-26 09:19:00,31.0,27.0,30.15,West,270,3.0,4.0,89,0.00,,,0.00,TxWx,2013-02-26 14:19:00,
2013-02-26 09:24:00,31.0,27.0,30.15,West,270,3.0,3.0,90,0.00,,,0.00,TxWx,2013-02-26 14:24:00,
2013-02-26 09:30:00,31.0,27.0,30.15,NNW,337,3.0,3.0,89,0.00,,,0.00,TxWx,2013-02-26 14:30:00,
2013-02-26 09:35:00,31.0,27.0,30.14,WSW,247,3.0,4.0,89,0.00,,,0.00,TxWx,2013-02-26 14:35:00,
2013-02-26 09:40:00,31.0,27.0,30.14,West,270,3.0,4.0,89,0.00,,,0.00,TxWx,2013-02-26 14:40:00,
2013-02-26 09:45:00,31.0,27.0,30.14,SSW,202,3.0,3.0,89,0.00,,,0.00,TxWx,2013-02-26 14:45:00,
2013-02-26 09:50:00,31.0,27.0,30.14,WNW,292,3.0,3.0,89,0.00,,,0.00,TxWx,2013-02-26 14:50:00,
2013-02-26 09:55:00,31.0,27.0,30.14,WNW,292,2.0,3.0,89,0.00,,,0.00,TxWx,2013-02-26 14:55:00,
2013-02-26 10:00:00,31.0,27.0,30.14,WNW,292,3.0,3.0,89,0.00,,,0.00,TxWx,2013-02-26 15:00:00,
2013-02-26 10:05:00,32.0,28.0,30.14,NW,315,3.0,4.0,88,0.00,,,0.00,TxWx,2013-02-26 15:05:00,
2013-02-26 10:10:00,32.0,28.0,30.15,SSW,202,3.0,3.0,88,0.00,,,0.00,TxWx,2013-02-26 15:10:00,
2013-02-26 10:15:00,32.0,28.0,30.15,WSW,247,3.0,3.0,87,0.00,,,0.00,TxWx,2013-02-26 15:15:00,
2013-02-26 10:20:00,32.0,27.0,30.15,SSW,202,4.0,5.0,87,0.00,,,0.00,TxWx,2013-02-26 15:20:00,
2013-02-26 10:25:00,33.0,29.0,30.15,SSW,202,5.0,5.0,87,0.00,,,0.00,TxWx,2013-02-26 15:25:00,
2013-02-26 10:31:00,34.0,28.0,30.15,SW,225,5.0,6.0,86,0.00,,,0.00,TxWx,2013-02-26 15:31:00,
2013-02-26 10:36:00,33.0,28.0,30.15,WSW,247,3.0,3.0,86,0.00,,,0.00,TxWx,2013-02-26 15:36:00,
2013-02-26 10:41:00,34.0,29.0,30.15,SW,225,3.0,3.0,85,0.00,,,0.00,TxWx,2013-02-26 15:41:00,
2013-02-26 10:46:00,33.0,28.0,30.16,SW,225,7.0,8.0,85,0.00,,,0.00,TxWx,2013-02-26 15:46:00,
2013-02-26 10:51:00,34.0,29.0,30.16,SW,225,5.0,6.0,86,0.00,,,0.00,TxWx,2013-02-26 15:51:00,
2013-02-26 10:56:00,35.0,30.0,30.16,SW,225,1.0,2.0,84,0.00,,,0.00,TxWx,2013-02-26 15:56:00,
2013-02-26 11:01:00,35.0,29.0,30.16,South,180,3.0,5.0,83,0.00,,,0.00,TxWx,2013-02-26 16:01:00,
2013-02-26 11:06:00,35.0,29.0,30.16,SSW,202,5.0,5.0,82,0.00,,,0.00,TxWx,2013-02-26 16:06:00,
2013-02-26 11:11:00,35.0,29.0,30.16,WNW,292,4.0,4.0,81,0.00,,,0.00,TxWx,2013-02-26 16:11:00,
2013-02-26 11:16:00,35.0,28.0,30.16,SW,225,5.0,8.0,79,0.00,,,0.00,TxWx,2013-02-26 16:16:00,
2013-02-26 11:21:00,35.0,28.0,30.15,SSW,202,6.0,7.0,77,0.00,,,0.00,TxWx,2013-02-26 16:21:00,
2013-02-26 11:26:00,35.0,28.0,30.15,SSW,202,4.0,5.0,77,0.00,,,0.00,TxWx,2013-02-26 16:26:00,
2013-02-26 11:31:00,35.0,27.0,30.14,SSE,157,2.0,3.0,77,0.00,,,0.00,TxWx,2013-02-26 16:31:00,
2013-02-26 11:37:00,35.0,28.0,30.15,SSW,202,4.0,5.0,77,0.00,,,0.00,TxWx,2013-02-26 16:37:00,
2013-02-26 11:42:00,35.0,27.0,30.14,SSW,202,5.0,6.0,77,0.00,,,0.00,TxWx,2013-02-26 16:42:00,
2013-02-26 11:47:00,35.0,27.0,30.14,South,180,3.0,4.0,76,0.00,,,0.00,TxWx,2013-02-26 16:47:00,
2013-02-26 11:52:00,36.0,28.0,30.14,SSW,202,6.0,8.0,75,0.00,,,0.00,TxWx,2013-02-26 16:52:00,
2013-02-26 11:57:00,36.0,28.0,30.14,WSW,247,1.0,1.0,76,0.00,,,0.00,TxWx,2013-02-26 16:57:00,
2013-02-26 12:02:00,36.0,28.0,30.14,SSE,157,2.0,3.0,75,0.00,,,0.00,TxWx,2013-02-26 17:02:00,
2013-02-26 12:07:00,36.0,27.0,30.14,SSW,202,6.0,6.0,73,0.00,,,0.00,TxWx,2013-02-26 17:07:00,
2013-02-26 12:12:00,36.0,27.0,30.14,SSW,202,6.0,8.0,72,0.00,,,0.00,TxWx,2013-02-26 17:12:00,
2013-02-26 12:17:00,36.0,27.0,30.14,SSW,202,6.0,6.0,72,0.00,,,0.00,TxWx,2013-02-26 17:17:00,
2013-02-26 12:22:00,36.0,27.0,30.13,SSW,202,5.0,5.0,72,0.00,,,0.00,TxWx,2013-02-26 17:22:00,
2013-02-26 12:27:00,37.0,28.0,30.13,South,180,5.0,8.0,72,0.00,,,0.00,TxWx,2013-02-26 17:27:00,
2013-02-26 12:33:00,36.0,26.0,30.14,ESE,112,4.0,4.0,70,0.00,,,0.00,TxWx,2013-02-26 17:33:00,
2013-02-26 12:38:00,37.0,27.0,30.13,SSE,157,5.0,5.0,71,0.00,,,0.00,TxWx,2013-02-26 17:38:00,
2013-02-26 12:43:00,37.0,27.0,30.13,ESE,112,5.0,6.0,70,0.00,,,0.00,TxWx,2013-02-26 17:43:00,
2013-02-26 12:48:00,36.0,26.0,30.13,SSE,157,5.0,5.0,69,0.00,,,0.00,TxWx,2013-02-26 17:48:00,
2013-02-26 12:53:00,37.0,27.0,30.13,SSE,157,0.0,1.0,69,0.00,,,0.00,TxWx,2013-02-26 17:53:00,
2013-02-26 12:58:00,37.0,27.0,30.13,SSE,157,0.0,0.0,70,0.00,,,0.00,TxWx,2013-02-26 17:58:00,
2013-02-26 13:03:00,38.0,28.0,30.12,SE,135,3.0,3.0,69,0.00,,,0.00,TxWx,2013-02-26 18:03:00,
2013-02-26 13:08:00,37.0,26.0,30.12,SSE,157,1.0,3.0,68,0.00,,,0.00,TxWx,2013-02-26 18:08:00,
2013-02-26 13:13:00,37.0,26.0,30.12,ESE,112,5.0,6.0,67,0.00,,,0.00,TxWx,2013-02-26 18:13:00,
2013-02-26 13:18:00,37.0,26.0,30.12,SE,135,5.0,6.0,66,0.00,,,0.00,TxWx,2013-02-26 18:18:00,
2013-02-26 13:23:00,38.0,27.0,30.12,ESE,112,8.0,10.0,67,0.00,,,0.00,TxWx,2013-02-26 18:23:00,
2013-02-26 13:28:00,38.0,26.0,30.11,ESE,112,4.0,6.0,66,0.00,,,0.00,TxWx,2013-02-26 18:28:00,
2013-02-26 13:34:00,37.0,25.0,30.11,ESE,112,5.0,6.0,65,0.00,,,0.00,TxWx,2013-02-26 18:34:00,
2013-02-26 13:39:00,37.0,25.0,30.11,ESE,112,5.0,6.0,65,0.00,,,0.00,TxWx,2013-02-26 18:39:00,
2013-02-26 13:44:00,38.0,26.0,30.10,NE,45,3.0,3.0,66,0.00,,,0.00,TxWx,2013-02-26 18:44:00,
2013-02-26 13:49:00,37.0,25.0,30.10,NE,45,6.0,7.0,64,0.00,,,0.00,TxWx,2013-02-26 18:49:00,
2013-02-26 13:54:00,37.0,25.0,30.10,ENE,67,4.0,4.0,64,0.00,,,0.00,TxWx,2013-02-26 18:54:00,
2013-02-26 13:59:00,38.0,26.0,30.09,ENE,67,5.0,5.0,64,0.00,,,0.00,TxWx,2013-02-26 18:59:00,
2013-02-26 14:00:00,33.0,23.0,29.89,NNE,22,3.0,3.0,69,0.00,,,0.00,TxWx,2013-02-26 19:00:00,
2013-02-26 14:01:00,33.0,23.0,29.90,NE,45,3.0,3.0,69,0.00,,,0.00,TxWx,2013-02-26 19:01:00,
2013-02-26 14:02:00,33.0,23.0,29.89,NNE,22,5.0,5.0,69,0.00,,,0.00,TxWx,2013-02-26 19:02:00,
2013-02-26 14:03:00,33.0,23.0,29.89,NNE,22,4.0,5.0,69,0.00,,,0.00,TxWx,2013-02-26 19:03:00,
2013-02-26 14:04:00,38.0,26.0,30.09,East,90,4.0,5.0,64,0.00,,,0.00,TxWx,2013-02-26 19:04:00,
2013-02-26 14:09:00,38.0,26.0,30.09,East,90,2.0,3.0,63,0.00,,,0.00,TxWx,2013-02-26 19:09:00,
2013-02-26 14:14:00,38.0,25.0,30.09,NE,45,6.0,6.0,63,0.00,,,0.00,TxWx,2013-02-26 19:14:00,
2013-02-26 14:15:00,33.0,22.0,29.90,NE,45,4.0,5.0,68,0.00,,,0.00,TxWx,2013-02-26 19:15:00,
2013-02-26 14:16:00,33.0,22.0,29.90,ENE,67,6.0,6.0,68,0.00,,,0.00,TxWx,2013-02-26 19:16:00,
2013-02-26 14:17:00,33.0,22.0,29.90,NE,45,5.0,6.0,67,0.00,,,0.00,TxWx,2013-02-26 19:17:00,
2013-02-26 14:18:00,33.0,22.0,29.90,ENE,67,3.0,4.0,67,0.00,,,0.00,TxWx,2013-02-26 19:18:00,
2013-02-26 14:19:00,38.0,25.0,30.09,NE,45,7.0,8.0,62,0.00,,,0.00,TxWx,2013-02-26 19:19:00,
2013-02-26 14:20:00,33.0,22.0,29.90,North,0,1.0,2.0,68,0.00,,,0.00,TxWx,2013-02-26 19:20:00,
2013-02-26 14:21:00,33.0,22.0,29.90,NE,45,8.0,10.0,68,0.00,,,0.00,TxWx,2013-02-26 19:21:00,
2013-02-26 14:22:00,34.0,23.0,29.90,ESE,112,2.0,3.0,67,0.00,,,0.00,TxWx,2013-02-26 19:22:00,
2013-02-26 14:24:00,38.0,25.0,30.08,ESE,112,6.0,7.0,63,0.00,,,0.00,TxWx,2013-02-26 19:24:00,
2013-02-26 14:25:00,33.0,23.0,29.89,NE,45,3.0,3.0,68,0.00,,,0.00,TxWx,2013-02-26 19:25:00,
2013-02-26 14:26:00,33.0,23.0,29.89,East,90,3.0,3.0,69,0.00,,,0.00,TxWx,2013-02-26 19:26:00,
2013-02-26 14:30:00,38.0,26.0,30.08,NE,45,7.0,8.0,63,0.00,,,0.00,TxWx,2013-02-26 19:30:00,
2013-02-26 14:32:00,33.0,23.0,29.89,NNE,22,5.0,5.0,69,0.00,,,0.00,TxWx,2013-02-26 19:32:00,
2013-02-26 14:33:00,33.0,23.0,29.89,NE,45,3.0,5.0,69,0.00,,,0.00,TxWx,2013-02-26 19:33:00,
2013-02-26 14:34:00,33.0,23.0,29.88,NE,45,5.0,5.0,69,0.00,,,0.00,TxWx,2013-02-26 19:34:00,
2013-02-26 14:35:00,37.0,25.0,30.08,East,90,6.0,8.0,63,0.00,,,0.00,TxWx,2013-02-26 19:35:00,
2013-02-26 14:40:00,37.0,25.0,30.08,East,90,4.0,5.0,63,0.00,,,0.00,TxWx,2013-02-26 19:40:00,
2013-02-26 14:45:00,37.0,25.0,30.08,ENE,67,8.0,9.0,63,0.00,,,0.00,TxWx,2013-02-26 19:45:00,
2013-02-26 14:50:00,37.0,25.0,30.08,SE,135,5.0,6.0,64,0.00,,,0.00,TxWx,2013-02-26 19:50:00,
2013-02-26 14:55:00,38.0,26.0,30.07,ENE,67,6.0,6.0,64,0.00,,,0.00,TxWx,2013-02-26 19:55:00,
2013-02-26 15:00:00,37.0,25.0,30.07,NE,45,5.0,7.0,63,0.00,,,0.00,TxWx,2013-02-26 20:00:00,
2013-02-26 15:05:00,37.0,25.0,30.07,NE,45,5.0,8.0,64,0.00,,,0.00,TxWx,2013-02-26 20:05:00,
2013-02-26 15:06:00,31.0,24.0,29.88,ENE,67,10.0,10.0,77,0.00,,,0.00,TxWx,2013-02-26 20:06:00,
2013-02-26 15:07:00,31.0,24.0,29.88,ENE,67,3.0,3.0,78,0.00,,,0.00,TxWx,2013-02-26 20:07:00,
2013-02-26 15:08:00,31.0,24.0,29.88,East,90,5.0,8.0,78,0.00,,,0.00,TxWx,2013-02-26 20:08:00,
2013-02-26 15:10:00,37.0,25.0,30.07,SE,135,4.0,6.0,64,0.00,,,0.00,TxWx,2013-02-26 20:10:00,
2013-02-26 15:15:00,37.0,25.0,30.07,ENE,67,6.0,8.0,63,0.00,,,0.00,TxWx,2013-02-26 20:15:00,
2013-02-26 15:21:00,38.0,25.0,30.07,ESE,112,6.0,6.0,63,0.00,,,0.00,TxWx,2013-02-26 20:21:00,
2013-02-26 15:26:00,38.0,25.0,30.07,ESE,112,5.0,6.0,63,0.00,,,0.00,TxWx,2013-02-26 20:26:00,
2013-02-26 15:31:00,37.0,25.0,30.07,ESE,112,6.0,6.0,63,0.00,,,0.00,TxWx,2013-02-26 20:31:00,
2013-02-26 15:36:00,37.0,26.0,30.07,NE,45,5.0,5.0,63,0.00,,,0.00,TxWx,2013-02-26 20:36:00,
2013-02-26 15:41:00,37.0,25.0,30.07,ESE,112,7.0,7.0,64,0.00,,,0.00,TxWx,2013-02-26 20:41:00,
2013-02-26 15:46:00,37.0,25.0,30.08,ESE,112,4.0,6.0,65,0.00,,,0.00,TxWx,2013-02-26 20:46:00,
2013-02-26 15:51:00,37.0,25.0,30.08,NE,45,3.0,4.0,65,0.00,,,0.00,TxWx,2013-02-26 20:51:00,
2013-02-26 15:56:00,37.0,25.0,30.07,ESE,112,4.0,5.0,65,0.00,,,0.00,TxWx,2013-02-26 20:56:00,
2013-02-26 16:01:00,36.0,24.0,30.07,ENE,67,6.0,6.0,65,0.00,,,0.00,TxWx,2013-02-26 21:01:00,
2013-02-26 16:06:00,36.0,25.0,30.07,ESE,112,8.0,10.0,66,0.00,,,0.00,TxWx,2013-02-26 21:06:00,
2013-02-26 16:08:00,29.0,26.0,29.87,SSE,157,3.0,5.0,94,0.00,,,0.00,TxWx,2013-02-26 21:08:00,
2013-02-26 16:10:00,29.0,27.0,29.87,SSE,157,3.0,4.0,95,0.00,,,0.00,TxWx,2013-02-26 21:10:00,
2013-02-26 16:12:00,36.0,25.0,30.06,East,90,8.0,10.0,66,0.00,,,0.00,TxWx,2013-02-26 21:12:00,
2013-02-26 16:13:00,29.0,27.0,29.88,NNE,22,3.0,4.0,95,0.00,,,0.00,TxWx,2013-02-26 21:13:00,
2013-02-26 16:16:00,29.0,27.0,29.87,NNE,22,8.0,11.0,96,0.00,,,0.00,TxWx,2013-02-26 21:16:00,
2013-02-26 16:17:00,36.0,25.0,30.06,ESE,112,7.0,10.0,66,0.00,,,0.00,TxWx,2013-02-26 21:17:00,
2013-02-26 16:18:00,29.0,28.0,29.87,NE,45,9.0,9.0,96,0.00,,,0.00,TxWx,2013-02-26 21:18:00,
2013-02-26 16:19:00,29.0,27.0,29.87,NE,45,4.0,5.0,96,0.00,,,0.00,TxWx,2013-02-26 21:19:00,
2013-02-26 16:22:00,36.0,25.0,30.06,East,90,6.0,8.0,66,0.00,,,0.00,TxWx,2013-02-26 21:22:00,
2013-02-26 16:27:00,36.0,25.0,30.06,ENE,67,8.0,10.0,66,0.00,,,0.00,TxWx,2013-02-26 21:27:00,
2013-02-26 16:32:00,36.0,25.0,30.06,ENE,67,5.0,9.0,66,0.00,,,0.00,TxWx,2013-02-26 21:32:00,
2013-02-26 16:37:00,36.0,25.0,30.06,ESE,112,5.0,6.0,66,0.00,,,0.00,TxWx,2013-02-26 21:37:00,
2013-02-26 16:42:00,35.0,24.0,30.06,ESE,112,13.0,13.0,66,0.00,,,0.00,TxWx,2013-02-26 21:42:00,
2013-02-26 16:48:00,35.0,24.0,30.06,East,90,8.0,10.0,66,0.00,,,0.01,TxWx,2013-02-26 21:48:00,
2013-02-26 16:49:00,29.0,27.0,29.84,North,0,3.0,3.0,97,0.00,,,0.00,TxWx,2013-02-26 21:49:00,
2013-02-26 16:50:00,29.0,27.0,29.84,NNE,22,5.0,7.0,97,0.00,,,0.00,TxWx,2013-02-26 21:50:00,
2013-02-26 16:53:00,35.0,24.0,30.06,ENE,67,12.0,13.0,67,0.60,,,0.01,TxWx,2013-02-26 21:53:00,
2013-02-26 16:58:00,35.0,24.0,30.05,ENE,67,5.0,9.0,67,0.60,,,0.01,TxWx,2013-02-26 21:58:00,
2013-02-26 17:03:00,35.0,24.0,30.05,East,90,9.0,14.0,67,0.00,,,0.01,TxWx,2013-02-26 22:03:00,
2013-02-26 17:08:00,35.0,24.0,30.05,East,90,8.0,9.0,67,0.00,,,0.01,TxWx,2013-02-26 22:08:00,
2013-02-26 17:13:00,35.0,24.0,30.05,ESE,112,13.0,14.0,67,0.00,,,0.01,TxWx,2013-02-26 22:13:00,
2013-02-26 17:16:00,28.0,27.0,29.81,NNW,337,5.0,5.0,99,0.00,,,0.00,TxWx,2013-02-26 22:16:00,
2013-02-26 17:17:00,29.0,28.0,29.81,NNE,22,5.0,6.0,99,0.00,,,0.00,TxWx,2013-02-26 22:17:00,
2013-02-26 17:18:00,35.0,24.0,30.05,ESE,112,9.0,10.0,68,0.00,,,0.01,TxWx,2013-02-26 22:18:00,
2013-02-26 17:23:00,35.0,25.0,30.05,East,90,10.0,10.0,68,0.00,,,0.01,TxWx,2013-02-26 22:23:00,
2013-02-26 17:28:00,34.0,24.0,30.05,ESE,112,2.0,5.0,69,0.00,,,0.01,TxWx,2013-02-26 22:28:00,
2013-02-26 17:33:00,34.0,25.0,30.05,East,90,8.0,9.0,69,0.00,,,0.01,TxWx,2013-02-26 22:33:00,
2013-02-26 17:39:00,34.0,24.0,30.05,East,90,8.0,8.0,69,0.00,,,0.01,TxWx,2013-02-26 22:39:00,
2013-02-26 17:44:00,35.0,25.0,30.05,ESE,112,8.0,8.0,70,0.00,,,0.01,TxWx,2013-02-26 22:44:00,
2013-02-26 17:49:00,34.0,24.0,30.05,SE,135,4.0,4.0,70,0.00,,,0.01,TxWx,2013-02-26 22:49:00,
2013-02-26 17:54:00,34.0,24.0,30.05,ENE,67,6.0,6.0,69,0.00,,,0.01,TxWx,2013-02-26 22:54:00,
2013-02-26 17:59:00,34.0,24.0,30.05,East,90,5.0,6.0,69,0.00,,,0.01,TxWx,2013-02-26 22:59:00,
2013-02-26 18:04:00,34.0,24.0,30.04,ESE,112,10.0,11.0,69,0.00,,,0.01,TxWx,2013-02-26 23:04:00,
2013-02-26 18:09:00,34.0,24.0,30.04,ENE,67,5.0,5.0,69,0.00,,,0.01,TxWx,2013-02-26 23:09:00,
2013-02-26 18:14:00,34.0,24.0,30.04,East,90,5.0,6.0,69,0.00,,,0.01,TxWx,2013-02-26 23:14:00,
2013-02-26 18:19:00,34.0,24.0,30.04,NE,45,6.0,6.0,70,0.00,,,0.01,TxWx,2013-02-26 23:19:00,
2013-02-26 18:24:00,34.0,24.0,30.04,ESE,112,6.0,8.0,69,0.00,,,0.01,TxWx,2013-02-26 23:24:00,
2013-02-26 18:29:00,34.0,25.0,30.04,ENE,67,3.0,3.0,69,0.00,,,0.01,TxWx,2013-02-26 23:29:00,
2013-02-26 18:35:00,34.0,24.0,30.05,ESE,112,3.0,4.0,70,0.00,,,0.01,TxWx,2013-02-26 23:35:00,
2013-02-26 18:40:00,34.0,24.0,30.05,NE,45,2.0,4.0,70,0.00,,,0.01,TxWx,2013-02-26 23:40:00,
2013-02-26 18:45:00,34.0,24.0,30.05,ENE,67,5.0,6.0,70,0.00,,,0.01,TxWx,2013-02-26 23:45:00,
2013-02-26 18:50:00,34.0,24.0,30.05,East,90,3.0,4.0,70,0.00,,,0.01,TxWx,2013-02-26 23:50:00,
2013-02-26 18:55:00,34.0,24.0,30.05,East,90,5.0,6.0,70,0.00,,,0.01,TxWx,2013-02-26 23:55:00,
2013-02-26 19:00:00,34.0,24.0,30.05,ESE,112,5.0,5.0,70,0.00,,,0.01,TxWx,2013-02-27 00:00:00,
2013-02-26 19:05:00,34.0,24.0,30.06,East,90,6.0,6.0,70,0.00,,,0.01,TxWx,2013-02-27 00:05:00,
2013-02-26 19:10:00,34.0,24.0,30.05,ESE,112,4.0,4.0,70,0.00,,,0.01,TxWx,2013-02-27 00:10:00,
2013-02-26 19:15:00,34.0,24.0,30.05,SE,135,4.0,4.0,70,0.00,,,0.01,TxWx,2013-02-27 00:15:00,
2013-02-26 19:20:00,34.0,24.0,30.05,East,90,3.0,5.0,71,0.00,,,0.01,TxWx,2013-02-27 00:20:00,
2013-02-26 19:25:00,34.0,24.0,30.05,ESE,112,5.0,5.0,71,0.00,,,0.01,TxWx,2013-02-27 00:25:00,
2013-02-26 19:30:00,34.0,24.0,30.05,ESE,112,5.0,5.0,71,0.00,,,0.01,TxWx,2013-02-27 00:30:00,
2013-02-26 19:36:00,34.0,24.0,30.05,SSE,157,1.0,3.0,71,0.00,,,0.01,TxWx,2013-02-27 00:36:00,
2013-02-26 19:41:00,34.0,24.0,30.04,North,0,2.0,3.0,71,0.00,,,0.01,TxWx,2013-02-27 00:41:00,
2013-02-26 19:46:00,34.0,25.0,30.04,SE,135,3.0,6.0,71,0.00,,,0.01,TxWx,2013-02-27 00:46:00,
2013-02-26 19:51:00,34.0,25.0,30.04,NE,45,3.0,3.0,71,0.00,,,0.01,TxWx,2013-02-27 00:51:00,
2013-02-26 19:56:00,34.0,25.0,30.04,ESE,112,2.0,2.0,71,0.00,,,0.01,TxWx,2013-02-27 00:56:00,
2013-02-26 20:00:00,34.0,33.0,29.71,NE,45,4.0,5.0,97,0.00,,,0.00,TxWx,2013-02-27 01:00:00,
2013-02-26 20:01:00,34.0,25.0,30.04,East,90,6.0,9.0,72,0.00,,,0.01,TxWx,2013-02-27 01:01:00,
2013-02-26 20:06:00,34.0,25.0,30.04,ESE,112,3.0,5.0,72,0.00,,,0.01,TxWx,2013-02-27 01:06:00,
2013-02-26 20:07:00,34.0,33.0,29.71,North,0,5.0,6.0,96,0.00,,,0.00,TxWx,2013-02-27 01:07:00,
2013-02-26 20:08:00,34.0,33.0,29.71,NNW,337,8.0,10.0,96,0.00,,,0.00,TxWx,2013-02-27 01:08:00,
2013-02-26 20:09:00,34.0,33.0,29.71,NE,45,5.0,9.0,96,0.00,,,0.00,TxWx,2013-02-27 01:09:00,
2013-02-26 20:11:00,34.0,25.0,30.04,NE,45,3.0,4.0,72,0.00,,,0.01,TxWx,2013-02-27 01:11:00,
2013-02-26 20:16:00,34.0,25.0,30.03,East,90,3.0,5.0,72,0.00,,,0.01,TxWx,2013-02-27 01:16:00,
2013-02-26 20:21:00,34.0,25.0,30.03,ESE,112,2.0,4.0,72,0.00,,,0.01,TxWx,2013-02-27 01:21:00,
2013-02-26 20:26:00,34.0,25.0,30.03,ESE,112,4.0,4.0,72,0.00,,,0.01,TxWx,2013-02-27 01:26:00,
2013-02-26 20:31:00,34.0,25.0,30.02,ESE,112,5.0,6.0,72,0.00,,,0.01,TxWx,2013-02-27 01:31:00,
2013-02-26 20:36:00,34.0,25.0,30.02,NE,45,3.0,3.0,72,0.00,,,0.01,TxWx,2013-02-27 01:36:00,
2013-02-26 20:41:00,34.0,25.0,30.01,ENE,67,2.0,3.0,72,0.00,,,0.01,TxWx,2013-02-27 01:41:00,
2013-02-26 20:47:00,34.0,25.0,30.01,NE,45,5.0,8.0,72,0.00,,,0.01,TxWx,2013-02-27 01:47:00,
2013-02-26 20:52:00,34.0,25.0,30.01,NE,45,3.0,5.0,72,0.00,,,0.01,TxWx,2013-02-27 01:52:00,
2013-02-26 20:57:00,34.0,25.0,30.01,ENE,67,2.0,3.0,72,0.00,,,0.01,TxWx,2013-02-27 01:57:00,
2013-02-26 21:02:00,34.0,25.0,30.00,NE,45,3.0,3.0,72,0.00,,,0.01,TxWx,2013-02-27 02:02:00,
2013-02-26 21:07:00,34.0,25.0,30.00,NNE,22,3.0,3.0,73,0.00,,,0.01,TxWx,2013-02-27 02:07:00,
2013-02-26 21:12:00,33.0,24.0,29.99,NE,45,3.0,3.0,73,0.00,,,0.01,TxWx,2013-02-27 02:12:00,
2013-02-26 21:17:00,34.0,25.0,29.99,NE,45,4.0,6.0,73,0.00,,,0.01,TxWx,2013-02-27 02:17:00,
2013-02-26 21:22:00,34.0,25.0,29.99,ESE,112,3.0,3.0,72,0.00,,,0.01,TxWx,2013-02-27 02:22:00,
2013-02-26 21:27:00,34.0,25.0,29.99,ESE,112,6.0,11.0,73,0.00,,,0.01,TxWx,2013-02-27 02:27:00,
2013-02-26 21:32:00,33.0,25.0,29.98,NE,45,3.0,3.0,73,0.00,,,0.01,TxWx,2013-02-27 02:32:00,
2013-02-26 21:37:00,34.0,25.0,29.97,NE,45,3.0,3.0,73,0.00,,,0.01,TxWx,2013-02-27 02:37:00,
2013-02-26 21:42:00,33.0,24.0,29.97,ENE,67,3.0,3.0,73,0.00,,,0.01,TxWx,2013-02-27 02:42:00,
2013-02-26 21:48:00,33.0,24.0,29.97,ENE,67,2.0,2.0,73,0.00,,,0.01,TxWx,2013-02-27 02:48:00,
2013-02-26 21:53:00,34.0,24.0,29.97,East,90,8.0,8.0,73,0.00,,,0.01,TxWx,2013-02-27 02:53:00,
2013-02-26 21:58:00,33.0,24.0,29.96,NNE,22,1.0,2.0,73,0.00,,,0.01,TxWx,2013-02-27 02:58:00,
2013-02-26 22:03:00,34.0,25.0,29.96,NE,45,5.0,5.0,73,0.00,,,0.01,TxWx,2013-02-27 03:03:00,
2013-02-26 22:08:00,33.0,24.0,29.96,East,90,3.0,4.0,73,0.00,,,0.01,TxWx,2013-02-27 03:08:00,
2013-02-26 22:13:00,34.0,24.0,29.95,East,90,3.0,3.0,73,0.00,,,0.01,TxWx,2013-02-27 03:13:00,
2013-02-26 22:18:00,34.0,25.0,29.95,NNE,22,2.0,3.0,73,0.00,,,0.01,TxWx,2013-02-27 03:18:00,
2013-02-26 22:23:00,33.0,24.0,29.95,NE,45,3.0,3.0,74,0.00,,,0.01,TxWx,2013-02-27 03:23:00,
2013-02-26 22:28:00,33.0,25.0,29.94,NNE,22,5.0,5.0,74,0.00,,,0.01,TxWx,2013-02-27 03:28:00,
2013-02-26 22:33:00,34.0,26.0,29.93,NNE,22,5.0,5.0,75,0.00,,,0.01,TxWx,2013-02-27 03:33:00,
2013-02-26 22:39:00,34.0,26.0,29.93,NNE,22,6.0,6.0,75,0.00,,,0.01,TxWx,2013-02-27 03:39:00,
2013-02-26 22:44:00,33.0,25.0,29.92,NE,45,7.0,8.0,75,0.00,,,0.01,TxWx,2013-02-27 03:44:00,
2013-02-26 22:49:00,33.0,25.0,29.93,NE,45,4.0,5.0,75,0.00,,,0.01,TxWx,2013-02-27 03:49:00,
2013-02-26 22:54:00,33.0,25.0,29.93,East,90,2.0,3.0,74,0.00,,,0.01,TxWx,2013-02-27 03:54:00,
2013-02-26 22:59:00,33.0,25.0,29.93,NE,45,3.0,3.0,74,0.00,,,0.01,TxWx,2013-02-27 03:59:00,
2013-02-26 23:04:00,33.0,25.0,29.92,NE,45,2.0,2.0,74,0.00,,,0.01,TxWx,2013-02-27 04:04:00,
2013-02-26 23:09:00,33.0,25.0,29.92,NE,45,4.0,4.0,74,0.00,,,0.01,TxWx,2013-02-27 04:09:00,
2013-02-26 23:14:00,33.0,24.0,29.92,ESE,112,1.0,1.0,74,0.00,,,0.01,TxWx,2013-02-27 04:14:00,
2013-02-26 23:19:00,33.0,24.0,29.92,East,90,3.0,3.0,74,0.00,,,0.01,TxWx,2013-02-27 04:19:00,
2013-02-26 23:24:00,33.0,24.0,29.92,NE,45,3.0,4.0,73,0.00,,,0.01,TxWx,2013-02-27 04:24:00,
2013-02-26 23:29:00,33.0,24.0,29.92,ENE,67,1.0,2.0,72,0.00,,,0.01,TxWx,2013-02-27 04:29:00,
2013-02-26 23:34:00,33.0,24.0,29.91,NE,45,2.0,2.0,72,0.00,,,0.01,TxWx,2013-02-27 04:34:00,
2013-02-26 23:39:00,34.0,25.0,29.90,NNE,22,3.0,4.0,72,0.00,,,0.01,TxWx,2013-02-27 04:39:00,
2013-02-26 23:45:00,33.0,24.0,29.91,NNE,22,4.0,4.0,71,0.00,,,0.01,TxWx,2013-02-27 04:45:00,
2013-02-26 23:50:00,33.0,23.0,29.91,NNE,22,5.0,5.0,70,0.00,,,0.01,TxWx,2013-02-27 04:50:00,
2013-02-26 23:55:00,34.0,24.0,29.90,NNE,22,5.0,5.0,70,0.00,,,0.01,TxWx,2013-02-27 04:55:00,